Aeroporto :
LOGIN :

Iscrizione | Disclaimer

   EN    FR    IT 

 










Sommario :    VFR   VFR Marginale   IFR   IFR Intensivo   IFR Molto Intensivo
Visibilità : 
Base nubi : 
>= 8 km
>= 3000ft
5 / 8 km
1000 / 3000 ft
1500m / 5 km
500 / 1000 ft
800 / 1500m
200 / 500 ft
< 800m
< 200 ft
Simboli :   Temporali  Nebbia  Neve Forte  Precipitazioni Forti  Vento > 20 kt
SIGMETs :   Varie  Temporali  Ghiacco  Turbolenza  Onda orograficha  Ceneri Vulcaniche






- Altitudine del aeroporto : 24 ft
- Codice IATA : UME


ESNU - Umeå

ULTIMO METAR :
  • 130820Z 17006KT 9999 FEW009 OVC022 02/01 Q0995 R14/19//65

METARs OBSOLETI :
  • 130750Z 19007KT 9999 BKN008 OVC027 02/01 Q0994 R14/19//65
  • 130720Z 18005KT 9999 -DZ BKN008 BKN018 OVC027 02/02 Q0994 R14/19//65
  • 130650Z 19006KT 9999 BKN010 OVC015 02/01 Q0994 R14/19//65
  • 130620Z 19006KT 150V230 9999 OVC008 02/02 Q0993 R14/19//65
  • 130550Z 18007KT 9999 BKN008 02/02 Q0993 R14/19//65

TAF TAF ESNU
Valido dal 13 a 09 ore il 13 a 18 ore UTC


130830Z 1309/1318 19008KT 9999 OVC006
TEMPO 1309/1318 SCT006 BKN015



MetMap, La meteo Aeronautica in un colpo d'occhio ! - Copyright ORBIFLY Dicembre 2007 - Disclaimer

ORBIFLY MET'MAP TEAM :

Programmazione e sviluppo : Alexandra Zaïnal
Concezione : Baudouin d'Aumeries
Aiuto per la programmazione : Marc-Olivier Méhu
Supporto tecnico e logistico : Manuel Goepfert
Aiuto per la traduzione : Arnaldo La Scala

Contatto : metmap@orbifly.com




FONTI E CREDITI :

   NOAA